createdAt,value
2023-05-20T00:00:02.030Z,91.81
2023-05-20T00:01:34.133Z,91.90
2023-05-20T00:03:06.429Z,91.63
2023-05-20T00:04:38.700Z,91.62
2023-05-20T00:06:10.959Z,91.60
2023-05-20T00:07:43.330Z,91.67
2023-05-20T00:09:15.606Z,91.78
2023-05-20T00:10:47.888Z,91.78
2023-05-20T00:12:19.973Z,91.76
2023-05-20T00:13:52.180Z,92.00
2023-05-20T00:15:24.241Z,92.05
2023-05-20T00:16:56.386Z,92.18
2023-05-20T00:18:28.604Z,91.89
2023-05-20T00:20:00.931Z,92.05
2023-05-20T00:21:34.234Z,91.95
2023-05-20T00:24:38.066Z,91.79
2023-05-20T00:26:11.223Z,91.91
2023-05-20T00:27:43.348Z,91.56
2023-05-20T00:29:15.413Z,91.28
2023-05-20T00:30:47.611Z,91.53
2023-05-20T00:32:19.810Z,91.86
2023-05-20T00:33:51.938Z,92.07
2023-05-20T00:35:24.203Z,92.10
2023-05-20T00:36:56.609Z,91.79
2023-05-20T00:38:28.819Z,91.69
2023-05-20T00:40:01.038Z,91.81
2023-05-20T00:41:33.514Z,91.95
2023-05-20T00:43:05.783Z,92.24
2023-05-20T00:44:37.937Z,92.46
2023-05-20T00:46:10.971Z,92.37
2023-05-20T00:47:44.003Z,91.78
2023-05-20T00:49:16.554Z,91.69
2023-05-20T00:50:49.800Z,92.16
2023-05-20T00:52:22.010Z,92.35
2023-05-20T00:53:54.694Z,92.10
2023-05-20T00:55:26.823Z,92.12
2023-05-20T00:56:59.882Z,92.13
2023-05-20T00:58:32.820Z,92.03
2023-05-20T01:00:06.353Z,92.15
2023-05-20T01:01:38.337Z,91.85
2023-05-20T01:03:10.505Z,92.08
2023-05-20T01:04:47.034Z,91.74
2023-05-20T01:06:19.067Z,91.76
2023-05-20T01:07:51.574Z,92.05
2023-05-20T01:09:24.697Z,92.26
2023-05-20T01:11:05.556Z,91.90
2023-05-20T01:12:49.871Z,91.57
2023-05-20T01:14:23.014Z,91.80
2023-05-20T01:15:56.783Z,91.89
2023-05-20T01:17:31.637Z,92.11
2023-05-20T01:19:04.511Z,91.90
2023-05-20T01:20:37.576Z,91.94
2023-05-20T01:22:12.939Z,91.94
2023-05-20T01:23:45.185Z,92.25
2023-05-20T01:25:17.309Z,92.49
2023-05-20T01:28:30.716Z,92.78
2023-05-20T01:30:03.033Z,92.56
2023-05-20T01:31:37.895Z,92.38
2023-05-20T01:33:11.820Z,92.55
2023-05-20T01:34:45.752Z,92.39
2023-05-20T01:36:19.210Z,92.57
2023-05-20T01:37:51.376Z,92.45
2023-05-20T01:39:25.501Z,92.39
2023-05-20T01:40:58.512Z,92.01
2023-05-20T01:42:30.795Z,91.70
2023-05-20T01:44:03.029Z,91.87
2023-05-20T01:45:35.438Z,91.78
2023-05-20T01:47:07.906Z,91.56
2023-05-20T01:48:40.087Z,91.56
2023-05-20T01:50:12.268Z,91.70
2023-05-20T01:51:44.377Z,92.09
2023-05-20T01:53:16.501Z,91.87
2023-05-20T01:54:51.546Z,91.56
2023-05-20T01:58:00.199Z,91.74
2023-05-20T01:59:32.401Z,91.63
2023-05-20T02:01:04.645Z,91.79
2023-05-20T02:02:37.159Z,91.75
2023-05-20T02:04:09.598Z,91.66
2023-05-20T02:05:42.173Z,91.75
2023-05-20T02:07:15.629Z,91.47
2023-05-20T02:08:47.748Z,91.75
2023-05-20T02:10:20.039Z,91.86
2023-05-20T02:11:52.216Z,92.07
2023-05-20T02:13:24.367Z,91.63
2023-05-20T02:14:56.580Z,91.59
2023-05-20T02:16:28.698Z,91.42
2023-05-20T02:18:00.978Z,91.56
2023-05-20T02:19:33.214Z,91.54
2023-05-20T02:21:06.007Z,91.94
2023-05-20T02:22:38.309Z,91.96
2023-05-20T02:24:10.579Z,92.12
2023-05-20T02:25:42.819Z,92.21
2023-05-20T02:27:15.075Z,91.98
2023-05-20T02:28:51.265Z,91.70
2023-05-20T02:30:23.375Z,91.54
2023-05-20T02:31:55.509Z,91.56
2023-05-20T02:33:29.443Z,91.86
2023-05-20T02:35:01.595Z,92.24
2023-05-20T02:36:33.671Z,92.53
2023-05-20T02:38:06.049Z,92.88
2023-05-20T02:39:38.296Z,92.83
2023-05-20T02:41:10.449Z,92.55
2023-05-20T02:42:42.584Z,92.50
2023-05-20T02:44:15.150Z,92.50
2023-05-20T02:45:47.932Z,92.43
2023-05-20T02:47:20.084Z,92.33
2023-05-20T02:48:52.622Z,92.49
2023-05-20T02:50:24.734Z,92.34
2023-05-20T02:51:57.435Z,92.26
2023-05-20T02:53:29.560Z,92.25
2023-05-20T02:55:01.676Z,91.97
2023-05-20T02:56:34.726Z,92.17
2023-05-20T02:58:06.890Z,92.27
2023-05-20T02:59:39.049Z,92.46
2023-05-20T03:02:43.155Z,92.63
2023-05-20T03:04:15.535Z,92.61
2023-05-20T03:05:47.807Z,92.57
2023-05-20T03:07:22.150Z,91.89
2023-05-20T03:08:54.294Z,92.08
2023-05-20T03:10:26.516Z,92.07
2023-05-20T03:11:58.699Z,92.20
2023-05-20T03:13:30.926Z,92.18
2023-05-20T03:15:04.233Z,92.13
2023-05-20T03:16:36.473Z,92.18
2023-05-20T03:18:11.502Z,91.85
2023-05-20T03:19:43.630Z,91.75
2023-05-20T03:21:15.888Z,91.50
2023-05-20T03:22:48.058Z,91.60
2023-05-20T03:24:20.164Z,91.54
2023-05-20T03:25:52.563Z,91.89
2023-05-20T03:27:27.012Z,91.81
2023-05-20T03:29:01.775Z,92.09
2023-05-20T03:30:33.920Z,92.00
2023-05-20T03:32:08.703Z,92.02
2023-05-20T03:33:42.336Z,92.43
2023-05-20T03:35:14.531Z,92.55
2023-05-20T03:36:46.719Z,92.61
2023-05-20T03:38:18.889Z,92.36
2023-05-20T03:39:51.239Z,92.63
2023-05-20T03:41:23.609Z,92.57
2023-05-20T03:42:56.039Z,92.63
2023-05-20T03:44:28.293Z,92.72
2023-05-20T03:46:00.572Z,92.98
2023-05-20T03:47:32.800Z,93.05
2023-05-20T03:49:06.048Z,93.16
2023-05-20T03:50:38.250Z,93.01
2023-05-20T03:52:10.316Z,93.23
2023-05-20T03:53:42.455Z,93.27
2023-05-20T03:55:15.543Z,93.44
2023-05-20T03:56:49.692Z,93.53
2023-05-20T03:58:22.703Z,93.76
2023-05-20T03:59:54.938Z,93.74
2023-05-20T04:01:27.176Z,93.99
2023-05-20T04:02:59.682Z,94.34
2023-05-20T04:04:32.001Z,94.32
2023-05-20T04:06:04.236Z,94.62
2023-05-20T04:07:36.857Z,94.79
2023-05-20T04:09:09.055Z,94.97
2023-05-20T04:10:44.416Z,94.83
2023-05-20T04:12:16.637Z,95.19
2023-05-20T04:13:48.788Z,95.46
2023-05-20T04:15:21.036Z,95.60
2023-05-20T04:16:53.141Z,95.86
2023-05-20T04:18:25.305Z,95.83
2023-05-20T04:20:00.394Z,95.81
2023-05-20T04:21:32.584Z,96.07
2023-05-20T04:23:04.808Z,96.24
2023-05-20T04:24:38.522Z,96.39
2023-05-20T04:26:10.667Z,96.57
2023-05-20T04:27:44.103Z,96.71
2023-05-20T04:29:16.519Z,96.99
2023-05-20T04:30:48.711Z,97.07
2023-05-20T04:32:21.201Z,97.49
2023-05-20T04:33:56.241Z,97.71
2023-05-20T04:35:28.588Z,97.64
2023-05-20T04:37:00.852Z,97.85
2023-05-20T04:38:33.040Z,98.13
2023-05-20T04:40:07.178Z,98.30
2023-05-20T04:41:40.374Z,98.53
2023-05-20T04:43:12.547Z,98.82
2023-05-20T04:44:46.526Z,99.28
2023-05-20T04:46:19.136Z,99.63
2023-05-20T04:47:53.803Z,100.00
2023-05-20T04:49:32.291Z,100.00
2023-05-20T04:51:04.712Z,100.00
2023-05-20T04:52:38.386Z,100.00
2023-05-20T04:54:10.600Z,99.67
2023-05-20T04:55:43.805Z,99.52
2023-05-20T04:57:15.895Z,99.79
2023-05-20T04:58:48.019Z,99.69
2023-05-20T05:00:20.148Z,99.25
2023-05-20T05:01:52.392Z,98.68
2023-05-20T05:03:24.709Z,98.34
2023-05-20T05:04:56.991Z,97.97
2023-05-20T05:06:29.283Z,97.77
2023-05-20T05:08:01.591Z,97.48
2023-05-20T05:11:07.331Z,96.17
2023-05-20T05:12:39.572Z,95.69
2023-05-20T05:14:11.719Z,94.96
2023-05-20T05:15:43.913Z,95.02
2023-05-20T05:17:16.065Z,94.69
2023-05-20T05:18:48.318Z,94.02
2023-05-20T05:20:20.927Z,93.66
2023-05-20T05:21:53.160Z,93.17
2023-05-20T05:23:25.440Z,92.73
2023-05-20T05:24:59.432Z,92.66
2023-05-20T05:26:31.572Z,92.08
2023-05-20T05:28:03.795Z,91.91
2023-05-20T05:29:35.973Z,92.40
2023-05-20T05:31:08.685Z,92.18
2023-05-20T05:32:40.992Z,91.77
2023-05-20T05:34:13.312Z,91.17
2023-05-20T05:35:45.531Z,90.56
2023-05-20T05:37:17.691Z,90.28
2023-05-20T05:38:58.736Z,89.81
2023-05-20T05:40:30.931Z,89.20
2023-05-20T05:42:03.042Z,89.74
2023-05-20T05:43:35.741Z,89.45
2023-05-20T05:45:08.576Z,89.44
2023-05-20T05:46:40.759Z,88.59
2023-05-20T05:48:13.017Z,88.40
2023-05-20T05:49:45.355Z,88.15
2023-05-20T05:51:17.737Z,88.61
2023-05-20T05:52:49.905Z,88.66
2023-05-20T05:54:22.030Z,88.58
2023-05-20T05:55:54.294Z,89.44
2023-05-20T05:57:26.487Z,89.51
2023-05-20T05:58:58.900Z,89.73
2023-05-20T06:00:31.163Z,89.97
2023-05-20T06:02:03.528Z,90.33
2023-05-20T06:03:36.086Z,90.63
2023-05-20T06:05:09.470Z,90.21
2023-05-20T06:06:42.129Z,90.66
2023-05-20T06:08:14.292Z,90.40
2023-05-20T06:09:46.842Z,89.98
2023-05-20T06:11:19.484Z,89.44
2023-05-20T06:12:51.621Z,89.02
2023-05-20T06:14:23.733Z,88.96
2023-05-20T06:15:55.934Z,89.23
2023-05-20T06:17:28.156Z,89.05
2023-05-20T06:19:03.345Z,88.83
2023-05-20T06:20:36.232Z,88.81
2023-05-20T06:22:08.349Z,89.33
2023-05-20T06:23:40.633Z,89.08
2023-05-20T06:25:13.479Z,88.68
2023-05-20T06:26:46.536Z,88.41
2023-05-20T06:28:19.157Z,88.03
2023-05-20T06:29:51.285Z,86.92
2023-05-20T06:31:23.516Z,87.32
2023-05-20T06:32:55.811Z,87.19
2023-05-20T06:34:27.958Z,86.57
2023-05-20T06:36:02.156Z,86.40
2023-05-20T06:37:34.792Z,85.96
2023-05-20T06:39:12.662Z,85.83
2023-05-20T06:40:44.838Z,85.33
2023-05-20T06:42:16.988Z,85.45
2023-05-20T06:43:50.533Z,85.45
2023-05-20T06:45:24.043Z,85.07
2023-05-20T06:46:56.377Z,85.12
2023-05-20T06:48:28.567Z,84.94
2023-05-20T06:50:00.718Z,85.12
2023-05-20T06:51:32.826Z,83.81
2023-05-20T06:53:05.075Z,82.56
2023-05-20T06:54:41.920Z,82.36
2023-05-20T06:56:14.076Z,81.85
2023-05-20T06:57:46.263Z,81.00
2023-05-20T06:59:18.644Z,82.46
2023-05-20T07:00:50.888Z,83.58
2023-05-20T07:02:23.542Z,83.48
2023-05-20T07:03:55.766Z,82.79
2023-05-20T07:05:29.408Z,83.04
2023-05-20T07:07:01.648Z,83.88
2023-05-20T07:08:33.853Z,82.53
2023-05-20T07:10:06.955Z,81.36
2023-05-20T07:11:39.057Z,81.13
2023-05-20T07:13:11.210Z,80.25
2023-05-20T07:14:43.545Z,79.31
2023-05-20T07:16:15.729Z,78.95
2023-05-20T07:17:47.892Z,77.57
2023-05-20T07:19:20.110Z,76.40
2023-05-20T07:20:53.258Z,75.80
2023-05-20T07:22:25.421Z,74.52
2023-05-20T07:23:57.548Z,74.99
2023-05-20T07:25:29.707Z,75.55
2023-05-20T07:27:01.903Z,76.64
2023-05-20T07:28:35.016Z,77.06
2023-05-20T07:30:07.796Z,76.56
2023-05-20T07:31:40.047Z,77.80
2023-05-20T07:33:12.514Z,78.56
2023-05-20T07:34:44.670Z,77.02
2023-05-20T07:36:17.114Z,76.82
2023-05-20T07:37:49.200Z,76.22
2023-05-20T07:39:21.499Z,76.50
2023-05-20T07:40:53.607Z,77.87
2023-05-20T07:42:25.728Z,76.35
2023-05-20T07:43:57.881Z,76.74
2023-05-20T07:45:30.057Z,77.38
2023-05-20T07:47:02.297Z,72.33
2023-05-20T07:48:34.359Z,71.91
2023-05-20T07:50:06.964Z,72.31
2023-05-20T07:51:39.132Z,73.79
2023-05-20T07:53:11.716Z,70.33
2023-05-20T07:54:43.860Z,72.33
2023-05-20T07:56:16.923Z,74.11
2023-05-20T07:57:49.063Z,75.75
2023-05-20T07:59:21.860Z,69.47
2023-05-20T08:00:53.960Z,69.82
2023-05-20T08:02:26.809Z,68.75
2023-05-20T08:03:59.130Z,68.42
2023-05-20T08:05:31.388Z,70.56
2023-05-20T08:07:03.667Z,67.52
2023-05-20T08:08:36.706Z,67.93
2023-05-20T08:10:09.560Z,72.99
2023-05-20T08:11:41.671Z,72.86
2023-05-20T08:13:13.896Z,71.47
2023-05-20T08:14:46.349Z,71.56
2023-05-20T08:16:18.744Z,71.09
2023-05-20T08:17:50.986Z,71.19
2023-05-20T08:19:23.119Z,67.10
2023-05-20T08:20:55.280Z,65.96
2023-05-20T08:22:30.034Z,64.96
2023-05-20T08:24:02.344Z,69.14
2023-05-20T08:25:34.670Z,67.50
2023-05-20T08:27:09.148Z,66.83
2023-05-20T08:28:41.313Z,65.27
2023-05-20T08:30:14.135Z,65.80
2023-05-20T08:31:46.292Z,68.17
2023-05-20T08:33:19.813Z,69.78
2023-05-20T08:34:51.916Z,69.58
2023-05-20T08:36:24.222Z,66.18
2023-05-20T08:37:56.389Z,65.63
2023-05-20T08:39:28.515Z,65.14
2023-05-20T08:41:03.068Z,64.35
2023-05-20T08:42:36.288Z,64.74
2023-05-20T08:44:08.855Z,64.08
2023-05-20T08:45:41.127Z,66.93
2023-05-20T08:47:13.247Z,65.65
2023-05-20T08:48:45.930Z,63.55
2023-05-20T08:50:18.157Z,63.53
2023-05-20T08:51:50.324Z,66.21
2023-05-20T08:53:23.259Z,64.90
2023-05-20T08:54:55.698Z,69.10
2023-05-20T08:56:30.151Z,71.50
2023-05-20T08:58:04.095Z,70.72
2023-05-20T08:59:36.665Z,72.32
2023-05-20T09:01:08.851Z,67.83
2023-05-20T09:02:41.054Z,67.32
2023-05-20T09:04:13.214Z,65.27
2023-05-20T09:05:45.418Z,64.79
2023-05-20T09:07:28.507Z,62.68
2023-05-20T09:09:04.239Z,66.92
2023-05-20T09:10:37.558Z,70.23
2023-05-20T09:12:09.757Z,69.55
2023-05-20T09:13:41.910Z,69.94
2023-05-20T09:15:14.034Z,66.94
2023-05-20T09:16:46.402Z,65.33
2023-05-20T09:18:18.679Z,61.63
2023-05-20T09:19:54.239Z,61.35
2023-05-20T09:21:29.890Z,60.17
2023-05-20T09:23:03.371Z,61.17
2023-05-20T09:24:35.642Z,64.30
2023-05-20T09:26:08.070Z,65.81
2023-05-20T09:27:40.683Z,67.45
2023-05-20T09:29:12.770Z,65.55
2023-05-20T09:30:46.133Z,67.97
2023-05-20T09:32:26.821Z,67.01
2023-05-20T09:33:58.982Z,58.89
2023-05-20T09:35:31.586Z,62.24
2023-05-20T09:37:04.234Z,61.13
2023-05-20T09:38:40.241Z,62.92
2023-05-20T09:40:13.040Z,64.42
2023-05-20T09:41:57.095Z,64.08
2023-05-20T09:43:29.375Z,64.52
2023-05-20T09:45:04.658Z,62.34
2023-05-20T09:46:37.455Z,61.37
2023-05-20T09:48:11.622Z,63.48
2023-05-20T09:49:44.490Z,58.44
2023-05-20T09:51:17.148Z,60.90
2023-05-20T09:52:50.600Z,62.69
2023-05-20T09:54:23.248Z,55.24
2023-05-20T09:55:56.501Z,59.44
2023-05-20T09:57:28.580Z,57.69
2023-05-20T10:15:11.712Z,64.63
2023-05-20T10:17:16.696Z,62.37
2023-05-20T10:19:12.783Z,62.76
2023-05-20T10:20:49.044Z,61.78
2023-05-20T10:22:32.164Z,61.74
2023-05-20T10:24:08.697Z,62.08
2023-05-20T10:25:54.635Z,60.05
2023-05-20T10:27:26.853Z,61.39
2023-05-20T10:28:59.038Z,62.23
2023-05-20T10:30:31.426Z,63.02
2023-05-20T10:32:04.508Z,61.77
2023-05-20T10:33:43.444Z,62.66
2023-05-20T10:35:22.479Z,61.39
2023-05-20T10:36:54.576Z,63.26
2023-05-20T10:38:26.808Z,63.70
2023-05-20T10:40:25.964Z,63.38
2023-05-20T10:42:12.429Z,62.46
2023-05-20T10:43:45.289Z,65.96
2023-05-20T10:45:28.207Z,63.96
2023-05-20T10:47:23.737Z,62.96
2023-05-20T10:48:56.852Z,62.80
2023-05-20T10:50:39.148Z,61.69
2023-05-20T10:52:11.409Z,66.58
2023-05-20T10:53:46.706Z,65.37
2023-05-20T10:55:23.166Z,61.31
2023-05-20T10:56:55.781Z,62.13
2023-05-20T10:58:27.924Z,62.48
2023-05-20T11:00:01.553Z,60.39
2023-05-20T11:01:33.813Z,58.45
2023-05-20T11:03:07.003Z,57.65
2023-05-20T11:04:40.049Z,59.59
2023-05-20T11:06:18.690Z,58.51
2023-05-20T11:07:51.623Z,57.75
2023-05-20T11:09:24.054Z,55.74
2023-05-20T11:10:57.614Z,56.12
2023-05-20T11:12:29.784Z,55.07
2023-05-20T11:14:01.925Z,55.31
2023-05-20T11:15:35.928Z,59.95
2023-05-20T11:17:08.656Z,60.13
2023-05-20T11:18:40.936Z,60.92
2023-05-20T11:20:15.632Z,61.05
2023-05-20T11:21:48.516Z,59.20
2023-05-20T11:23:20.638Z,58.10
2023-05-20T11:24:52.828Z,54.94
2023-05-20T11:26:25.168Z,55.69
2023-05-20T11:27:57.497Z,55.29
2023-05-20T11:29:32.701Z,56.12
2023-05-20T11:31:05.261Z,55.93
2023-05-20T11:32:37.622Z,59.96
2023-05-20T11:34:09.904Z,59.66
2023-05-20T11:35:52.548Z,59.15
2023-05-20T11:37:25.114Z,60.95
2023-05-20T11:39:00.780Z,57.61
2023-05-20T11:40:42.715Z,57.05
2023-05-20T11:42:22.412Z,56.32
2023-05-20T11:43:59.626Z,56.68
2023-05-20T11:45:42.601Z,58.26
2023-05-20T11:47:14.907Z,56.32
2023-05-20T11:48:57.291Z,57.40
2023-05-20T11:50:29.853Z,55.91
2023-05-20T11:52:03.913Z,53.88
2023-05-20T11:53:36.090Z,54.64
2023-05-20T11:56:56.352Z,50.18
2023-05-20T11:58:32.449Z,52.10
2023-05-20T12:00:07.853Z,54.17
2023-05-20T12:01:43.848Z,55.30
2023-05-20T12:03:16.958Z,51.82
2023-05-20T12:04:49.455Z,50.37
2023-05-20T12:06:22.162Z,49.96
2023-05-20T12:07:56.049Z,52.67
2023-05-20T12:09:28.738Z,49.61
2023-05-20T12:11:01.015Z,51.98
2023-05-20T12:12:33.240Z,51.95
2023-05-20T12:14:05.424Z,48.62
2023-05-20T12:15:38.134Z,46.67
2023-05-20T12:17:10.387Z,46.87
2023-05-20T12:18:42.733Z,45.65
2023-05-20T12:20:17.323Z,46.43
2023-05-20T12:21:49.465Z,46.30
2023-05-20T12:23:22.179Z,45.59
2023-05-20T12:24:55.291Z,46.71
2023-05-20T12:26:29.373Z,47.62
2023-05-20T12:28:02.900Z,46.47
2023-05-20T12:29:35.115Z,49.52
2023-05-20T12:31:07.297Z,47.22
2023-05-20T12:32:39.640Z,48.19
2023-05-20T12:34:11.787Z,46.52
2023-05-20T12:35:44.915Z,44.53
2023-05-20T12:37:17.176Z,47.50
2023-05-20T12:38:49.472Z,45.49
2023-05-20T12:40:21.714Z,46.68
2023-05-20T12:41:53.824Z,48.22
2023-05-20T12:43:25.953Z,48.98
2023-05-20T12:44:58.090Z,46.19
2023-05-20T12:46:30.290Z,46.84
2023-05-20T12:48:02.910Z,47.82
2023-05-20T12:49:35.178Z,46.95
2023-05-20T12:51:07.310Z,48.66
2023-05-20T12:52:39.586Z,48.18
2023-05-20T12:54:11.746Z,46.96
2023-05-20T12:55:44.032Z,47.08
2023-05-20T12:57:16.936Z,46.88
2023-05-20T12:58:49.369Z,47.22
2023-05-20T13:00:21.616Z,46.46
2023-05-20T13:01:53.813Z,48.83
2023-05-20T13:03:26.097Z,47.47
2023-05-20T13:04:58.273Z,48.08
2023-05-20T13:06:30.765Z,46.78
2023-05-20T13:08:02.972Z,45.78
2023-05-20T13:09:35.176Z,46.09
2023-05-20T13:12:46.441Z,45.39
2023-05-20T13:14:18.728Z,47.76
2023-05-20T13:15:51.649Z,46.67
2023-05-20T13:17:23.875Z,47.65
2023-05-20T13:18:56.114Z,48.78
2023-05-20T13:20:28.251Z,47.11
2023-05-20T13:22:00.586Z,47.73
2023-05-20T13:23:32.725Z,47.99
2023-05-20T13:25:05.901Z,45.22
2023-05-20T13:26:38.605Z,45.23
2023-05-20T13:28:11.215Z,45.55
2023-05-20T13:29:44.021Z,43.60
2023-05-20T13:31:16.430Z,44.74
2023-05-20T13:32:48.864Z,47.87
2023-05-20T13:34:21.206Z,48.99
2023-05-20T13:35:53.331Z,45.92
2023-05-20T13:37:25.666Z,50.38
2023-05-20T13:38:57.827Z,49.52
2023-05-20T13:40:29.974Z,49.29
2023-05-20T13:42:02.175Z,48.58
2023-05-20T13:43:34.699Z,50.85
2023-05-20T13:45:07.430Z,50.68
2023-05-20T13:46:39.731Z,48.23
2023-05-20T13:48:11.941Z,49.78
2023-05-20T13:49:44.130Z,50.78
2023-05-20T13:51:16.415Z,46.74
2023-05-20T13:52:48.612Z,44.68
2023-05-20T13:54:22.039Z,44.41
2023-05-20T13:55:54.224Z,44.15
2023-05-20T13:57:26.583Z,47.49
2023-05-20T13:58:58.938Z,45.87
2023-05-20T14:00:31.080Z,47.11
2023-05-20T14:02:03.438Z,48.07
2023-05-20T14:03:37.721Z,48.00
2023-05-20T14:05:10.228Z,48.04
2023-05-20T14:06:42.616Z,46.85
2023-05-20T14:08:14.813Z,49.73
2023-05-20T14:09:47.064Z,49.41
2023-05-20T14:11:19.269Z,48.01
2023-05-20T14:12:53.079Z,49.30
2023-05-20T14:14:25.191Z,47.60
2023-05-20T14:15:57.504Z,45.81
2023-05-20T14:17:29.793Z,46.42
2023-05-20T14:19:02.010Z,45.77
2023-05-20T14:20:34.451Z,47.97
2023-05-20T14:22:06.821Z,46.94
2023-05-20T14:23:41.505Z,49.52
2023-05-20T14:25:13.761Z,49.26
2023-05-20T14:26:45.885Z,46.77
2023-05-20T14:28:18.061Z,47.06
2023-05-20T14:29:50.192Z,48.18
2023-05-20T14:31:22.522Z,45.76
2023-05-20T14:32:54.889Z,47.61
2023-05-20T14:34:27.720Z,43.75
2023-05-20T14:36:00.045Z,45.48
2023-05-20T14:37:32.250Z,47.11
2023-05-20T14:39:04.460Z,45.80
2023-05-20T14:40:37.211Z,48.99
2023-05-20T14:42:09.503Z,47.92
2023-05-20T14:43:44.489Z,48.09
2023-05-20T14:45:17.049Z,45.94
2023-05-20T14:46:49.262Z,46.76
2023-05-20T14:48:21.538Z,46.77
2023-05-20T14:49:53.793Z,49.98
2023-05-20T14:51:26.061Z,49.42
2023-05-20T14:52:58.232Z,49.04
2023-05-20T14:54:30.432Z,48.31
2023-05-20T14:56:02.519Z,48.07
2023-05-20T14:57:37.418Z,47.85
2023-05-20T14:59:10.136Z,47.85
2023-05-20T15:00:42.863Z,47.08
2023-05-20T15:02:16.488Z,45.68
2023-05-20T15:03:48.782Z,45.56
2023-05-20T15:05:21.122Z,48.19
2023-05-20T15:06:54.025Z,49.00
2023-05-20T15:08:26.229Z,46.61
2023-05-20T15:09:58.383Z,50.78
2023-05-20T15:11:30.566Z,49.75
2023-05-20T15:13:02.834Z,49.86
2023-05-20T15:14:35.075Z,48.82
2023-05-20T15:16:08.144Z,48.86
2023-05-20T15:17:40.391Z,50.64
2023-05-20T15:19:15.499Z,47.24
2023-05-20T15:20:47.713Z,48.05
2023-05-20T15:22:19.871Z,49.52
2023-05-20T15:23:52.054Z,50.35
2023-05-20T15:25:24.352Z,50.82
2023-05-20T15:26:56.595Z,49.94
2023-05-20T15:28:31.482Z,49.38
2023-05-20T15:30:03.825Z,50.78
2023-05-20T15:31:36.044Z,51.82
2023-05-20T15:33:08.308Z,51.36
2023-05-20T15:34:40.565Z,50.90
2023-05-20T15:36:12.721Z,50.61
2023-05-20T15:37:44.895Z,50.88
2023-05-20T15:39:17.134Z,51.42
2023-05-20T15:40:50.652Z,52.30
2023-05-20T15:42:22.854Z,52.55
2023-05-20T15:43:55.132Z,51.52
2023-05-20T15:45:28.170Z,50.85
2023-05-20T15:47:00.337Z,50.50
2023-05-20T15:48:34.201Z,47.97
2023-05-20T15:50:08.878Z,49.34
2023-05-20T15:51:44.510Z,48.82
2023-05-20T15:53:24.287Z,48.88
2023-05-20T15:54:57.105Z,48.98
2023-05-20T15:56:29.897Z,50.10
2023-05-20T15:58:02.448Z,48.95
2023-05-20T15:59:34.580Z,50.24
2023-05-20T16:01:07.280Z,49.52
2023-05-20T16:02:40.628Z,49.19
2023-05-20T16:04:13.103Z,51.94
2023-05-20T16:05:45.458Z,52.89
2023-05-20T16:07:17.638Z,51.78
2023-05-20T16:08:49.730Z,52.26
2023-05-20T16:10:22.994Z,52.67
2023-05-20T16:11:56.942Z,53.30
2023-05-20T16:13:29.737Z,52.11
2023-05-20T16:15:01.978Z,53.32
2023-05-20T16:16:36.061Z,52.59
2023-05-20T16:18:08.708Z,53.44
2023-05-20T16:19:43.136Z,53.41
2023-05-20T16:21:15.404Z,51.93
2023-05-20T16:22:47.691Z,52.80
2023-05-20T16:24:19.819Z,54.06
2023-05-20T16:25:52.240Z,53.86
2023-05-20T16:27:24.363Z,54.74
2023-05-20T16:28:56.438Z,54.53
2023-05-20T16:30:28.548Z,55.18
2023-05-20T16:32:01.150Z,55.13
2023-05-20T16:33:33.302Z,54.24
2023-05-20T16:35:06.447Z,53.77
2023-05-20T16:36:38.429Z,54.47
2023-05-20T16:38:10.849Z,55.04
2023-05-20T16:39:43.015Z,53.61
2023-05-20T16:41:16.286Z,53.53
2023-05-20T16:42:48.700Z,54.59
2023-05-20T16:44:21.103Z,54.96
2023-05-20T16:45:53.875Z,55.86
2023-05-20T16:47:26.090Z,57.25
2023-05-20T16:48:58.325Z,59.28
2023-05-20T16:50:30.491Z,59.82
2023-05-20T16:52:02.778Z,61.21
2023-05-20T16:53:34.987Z,64.12
2023-05-20T16:55:08.873Z,69.79
2023-05-20T16:56:41.058Z,73.74
2023-05-20T16:58:13.241Z,76.16
2023-05-20T16:59:46.530Z,78.05
2023-05-20T17:01:18.761Z,79.50
2023-05-20T17:02:53.771Z,80.75
2023-05-20T17:04:26.206Z,81.59
2023-05-20T17:05:58.772Z,82.64
2023-05-20T17:07:31.059Z,83.17
2023-05-20T17:09:04.921Z,83.65
2023-05-20T17:10:37.072Z,83.92
2023-05-20T17:12:09.230Z,84.12
2023-05-20T17:13:42.125Z,84.33
2023-05-20T17:15:14.391Z,84.59
2023-05-20T17:16:46.710Z,85.15
2023-05-20T17:18:18.929Z,85.49
2023-05-20T17:19:51.308Z,85.52
2023-05-20T17:21:23.529Z,85.72
2023-05-20T17:24:28.518Z,85.29
2023-05-20T17:26:00.732Z,85.35
2023-05-20T17:27:33.761Z,85.80
2023-05-20T17:29:05.923Z,85.97
2023-05-20T17:30:38.109Z,85.08
2023-05-20T17:32:10.359Z,85.33
2023-05-20T17:33:42.693Z,85.03
2023-05-20T17:35:15.087Z,85.17
2023-05-20T17:36:47.406Z,85.10
2023-05-20T17:38:19.685Z,85.25
2023-05-20T17:39:51.927Z,85.38
2023-05-20T17:41:24.099Z,85.61
2023-05-20T17:42:56.431Z,85.35
2023-05-20T17:44:28.693Z,85.83
2023-05-20T17:46:01.073Z,86.66
2023-05-20T17:47:33.387Z,86.66
2023-05-20T17:49:05.602Z,87.35
2023-05-20T17:50:37.923Z,87.55
2023-05-20T17:52:10.018Z,87.73
2023-05-20T17:53:42.240Z,88.12
2023-05-20T17:55:14.954Z,88.09
2023-05-20T17:56:48.224Z,88.69
2023-05-20T17:59:52.901Z,89.46
2023-05-20T18:01:25.203Z,89.50
2023-05-20T18:03:00.719Z,89.89
2023-05-20T18:04:33.459Z,89.45
2023-05-20T18:06:06.022Z,89.52
2023-05-20T18:07:38.212Z,89.81
2023-05-20T18:09:10.596Z,90.11
2023-05-20T18:10:42.799Z,90.28
2023-05-20T18:12:14.975Z,90.57
2023-05-20T18:13:47.200Z,90.82
2023-05-20T18:15:19.490Z,90.96
2023-05-20T18:16:51.661Z,91.22
2023-05-20T18:18:23.934Z,91.17
2023-05-20T18:19:56.130Z,91.24
2023-05-20T18:21:28.361Z,91.39
2023-05-20T18:23:00.668Z,91.80
2023-05-20T18:24:33.326Z,91.76
2023-05-20T18:26:07.278Z,91.93
2023-05-20T18:27:40.508Z,92.09
2023-05-20T18:29:15.780Z,91.98
2023-05-20T18:30:47.930Z,91.92
2023-05-20T18:33:52.913Z,91.99
2023-05-20T18:35:25.265Z,92.26
2023-05-20T18:36:57.430Z,92.29
2023-05-20T18:38:29.661Z,92.56
2023-05-20T18:40:01.973Z,92.74
2023-05-20T18:41:46.505Z,92.67
2023-05-20T18:43:19.508Z,92.90
2023-05-20T18:44:51.784Z,92.97
2023-05-20T18:46:24.147Z,93.35
2023-05-20T18:47:58.079Z,93.52
2023-05-20T18:49:30.325Z,93.16
2023-05-20T18:51:02.433Z,92.97
2023-05-20T18:52:37.044Z,92.87
2023-05-20T18:54:11.385Z,92.79
2023-05-20T18:55:43.515Z,92.92
2023-05-20T18:57:15.843Z,93.04
2023-05-20T18:58:48.050Z,93.19
2023-05-20T19:00:20.562Z,93.27
2023-05-20T19:01:52.802Z,93.25
2023-05-20T19:03:25.766Z,93.40
2023-05-20T19:04:58.058Z,93.46
2023-05-20T19:06:30.248Z,93.47
2023-05-20T19:08:03.053Z,93.66
2023-05-20T19:09:35.235Z,93.58
2023-05-20T19:11:07.425Z,93.81
2023-05-20T19:12:39.598Z,93.58
2023-05-20T19:14:11.933Z,93.71
2023-05-20T19:15:44.193Z,93.64
2023-05-20T19:17:17.591Z,93.72
2023-05-20T19:18:51.195Z,93.63
2023-05-20T19:20:23.389Z,93.59
2023-05-20T19:21:55.662Z,93.73
2023-05-20T19:23:27.834Z,93.86
2023-05-20T19:25:00.307Z,93.83
2023-05-20T19:26:34.050Z,94.00
2023-05-20T19:28:06.340Z,94.05
2023-05-20T19:29:38.543Z,94.18
2023-05-20T19:31:10.951Z,94.29
2023-05-20T19:32:43.259Z,94.30
2023-05-20T19:34:18.412Z,94.55
2023-05-20T19:35:50.596Z,94.25
2023-05-20T19:37:23.313Z,94.39
2023-05-20T19:38:55.571Z,94.44
2023-05-20T19:40:28.801Z,94.54
2023-05-20T19:42:01.040Z,94.52
2023-05-20T19:43:33.533Z,94.52
2023-05-20T19:45:06.094Z,94.57
2023-05-20T19:46:38.866Z,94.37
2023-05-20T19:48:11.239Z,94.47
2023-05-20T19:49:43.544Z,94.16
2023-05-20T19:51:15.691Z,94.19
2023-05-20T19:52:47.836Z,94.06
2023-05-20T19:54:20.011Z,94.06
2023-05-20T19:55:52.332Z,94.13
2023-05-20T19:57:24.601Z,94.26
2023-05-20T19:58:58.035Z,94.34
2023-05-20T20:00:30.342Z,94.30
2023-05-20T20:02:03.451Z,94.33
2023-05-20T20:03:35.754Z,94.15
2023-05-20T20:05:08.288Z,94.07
2023-05-20T20:06:40.937Z,94.12
2023-05-20T20:08:13.140Z,94.03
2023-05-20T20:09:49.491Z,94.20
2023-05-20T20:11:21.851Z,94.25
2023-05-20T20:12:54.012Z,94.44
2023-05-20T20:14:26.173Z,94.34
2023-05-20T20:15:59.185Z,94.52
2023-05-20T20:17:34.042Z,94.61
2023-05-20T20:19:06.322Z,94.50
2023-05-20T20:20:40.990Z,94.23
2023-05-20T20:22:13.130Z,93.92
2023-05-20T20:23:45.491Z,94.10
2023-05-20T20:25:17.767Z,94.02
2023-05-20T20:26:50.896Z,94.17
2023-05-20T20:28:23.058Z,93.99
2023-05-20T20:29:55.248Z,93.64